Terminal Aerodrome Forecast
Issued by NWS

Home | Current Version | Previous Version | Text Only | Print | Product List | Glossary On
Versions: 1 2 3 4 5 6 7 8 9 10 11 12 13 14 15 16 17 18 19 20 21 22 23 24 25 26 27 28 29 30 31
000
FTUS43 KDLH 160529
TAFHIB
TAF
KHIB 160529Z 1606/1706 12004KT P6SM OVC250
     FM161500 13007KT P6SM OVC080
     FM161700 13008KT P6SM VCSH OVC060
     FM161900 13007KT 6SM SHRA OVC030
     FM162100 13006KT 4SM SHRA OVC015
     FM170200 10005KT 4SM SHRA OVC008=

USA.gov is the U.S. government's official web portal to all federal, state and local government web resources and services.